Time;durP1;ratioP1;P1;durP2;ratioP2;P2;SDS_P1;SDS_P2;PMS_P1;PMS_P2;Temp;Humidity;BMP_temperature;BMP_pressure;BME280_temperature;BME280_humidity;BME280_pressure;Samples;Min_cycle;Max_cycle;Signal;HPM_P1;HPM_P2
2021/08/21 00:01:17;;;;;;;17.35;8.82;;;;;;;;;;5091536;28;20028;-68
2021/08/21 00:03:44;;;;;;;15.85;9.02;;;;;;;;;;5091947;28;20078;-68
2021/08/21 00:06:10;;;;;;;18.80;9.40;;;;;;;;;;5086615;28;20112;-69
2021/08/21 00:08:36;;;;;;;17.50;9.25;;;;;;;;;;5091980;28;20063;-68
2021/08/21 00:11:02;;;;;;;16.35;10.13;;;;;;;;;;5091650;28;20020;-68
2021/08/21 00:13:28;;;;;;;16.20;9.30;;;;;;;;;;5091502;28;20059;-68
2021/08/21 00:15:54;;;;;;;17.50;10.93;;;;;;;;;;5087407;28;20024;-67
2021/08/21 00:18:21;;;;;;;16.52;9.13;;;;;;;;;;5091699;28;20021;-68
2021/08/21 00:20:47;;;;;;;17.67;10.30;;;;;;;;;;5089375;28;20047;-68
2021/08/21 00:23:13;;;;;;;17.98;9.40;;;;;;;;;;5089666;28;20173;-68
2021/08/21 00:25:39;;;;;;;18.30;10.15;;;;;;;;;;5088181;28;20015;-68
2021/08/21 00:28:05;;;;;;;17.48;9.52;;;;;;;;;;5090017;28;20028;-67
2021/08/21 00:30:31;;;;;;;17.25;9.45;;;;;;;;;;5091324;28;20375;-68
2021/08/21 00:32:57;;;;;;;16.38;8.82;;;;;;;;;;5091473;28;20028;-68
2021/08/21 00:35:23;;;;;;;16.38;9.02;;;;;;;;;;5089932;28;20411;-68
2021/08/21 00:37:52;;;;;;;17.00;9.52;;;;;;;;;;5089952;28;20180;-68
2021/08/21 00:40:18;;;;;;;17.25;10.30;;;;;;;;;;5111429;28;20051;-68
2021/08/21 00:42:44;;;;;;;14.05;9.38;;;;;;;;;;5111468;28;20035;-68
2021/08/21 00:45:11;;;;;;;17.77;10.02;;;;;;;;;;5111559;28;20019;-68
2021/08/21 00:47:37;;;;;;;15.77;9.75;;;;;;;;;;5108687;28;20020;-67
2021/08/21 00:50:04;;;;;;;17.80;10.15;;;;;;;;;;5111553;28;20043;-68
2021/08/21 00:52:31;;;;;;;19.83;9.32;;;;;;;;;;5111374;28;20110;-68
2021/08/21 00:54:58;;;;;;;23.50;10.60;;;;;;;;;;5098066;28;20107;-68
2021/08/21 00:57:25;;;;;;;21.23;11.70;;;;;;;;;;5088576;28;20020;-68
2021/08/21 00:59:52;;;;;;;22.63;11.40;;;;;;;;;;5091037;28;20073;-68
2021/08/21 01:02:18;;;;;;;20.00;11.48;;;;;;;;;;5090742;28;20020;-68
2021/08/21 01:04:46;;;;;;;25.52;13.63;;;;;;;;;;5090851;28;20028;-68
2021/08/21 01:07:16;;;;;;;21.83;12.57;;;;;;;;;;5088223;28;20012;-69
2021/08/21 01:09:42;;;;;;;20.30;12.77;;;;;;;;;;5090861;28;20021;-68
2021/08/21 01:12:16;;;;;;;22.35;12.57;;;;;;;;;;5090756;28;20027;-68
2021/08/21 01:14:42;;;;;;;25.27;12.45;;;;;;;;;;5090885;28;20047;-68
2021/08/21 01:17:08;;;;;;;24.35;12.85;;;;;;;;;;5088021;28;20024;-68
2021/08/21 01:19:40;;;;;;;26.60;14.27;;;;;;;;;;5090803;28;20065;-68
2021/08/21 01:22:14;;;;;;;25.15;13.18;;;;;;;;;;5090875;28;20481;-68
2021/08/21 01:24:40;;;;;;;24.15;12.90;;;;;;;;;;5090724;28;20073;-67
2021/08/21 01:27:07;;;;;;;24.75;14.30;;;;;;;;;;5088201;28;20032;-68
2021/08/21 01:29:33;;;;;;;23.75;13.05;;;;;;;;;;5089416;28;20550;-68
2021/08/21 01:31:59;;;;;;;27.55;14.77;;;;;;;;;;5090602;28;20024;-68
2021/08/21 01:34:25;;;;;;;27.70;14.40;;;;;;;;;;5090662;28;20031;-68
2021/08/21 01:36:52;;;;;;;31.25;16.35;;;;;;;;;;5090865;28;20445;-68
2021/08/21 01:39:18;;;;;;;27.80;15.02;;;;;;;;;;5113742;28;20549;-69
2021/08/21 01:41:45;;;;;;;28.58;14.93;;;;;;;;;;5114741;28;20031;-68
2021/08/21 01:44:11;;;;;;;32.38;16.10;;;;;;;;;;5114809;28;20058;-68
2021/08/21 01:46:37;;;;;;;35.33;16.35;;;;;;;;;;5093697;28;20020;-68
2021/08/21 01:49:07;;;;;;;32.15;16.35;;;;;;;;;;5115174;28;20020;-68
2021/08/21 01:51:34;;;;;;;25.98;14.15;;;;;;;;;;5096341;28;20050;-68
2021/08/21 01:54:00;;;;;;;30.02;15.05;;;;;;;;;;5109233;28;20397;-68
2021/08/21 01:56:26;;;;;;;27.02;15.55;;;;;;;;;;5091372;28;20039;-68
2021/08/21 01:58:52;;;;;;;28.60;16.05;;;;;;;;;;5094380;28;20030;-68
2021/08/21 02:01:18;;;;;;;25.73;13.77;;;;;;;;;;5094237;28;20051;-68
2021/08/21 02:03:46;;;;;;;30.27;15.95;;;;;;;;;;5093980;28;20028;-68
2021/08/21 02:06:12;;;;;;;31.40;15.95;;;;;;;;;;5091276;28;20032;-68
2021/08/21 02:08:38;;;;;;;35.83;17.33;;;;;;;;;;5094369;28;20027;-68
2021/08/21 02:11:04;;;;;;;31.90;16.55;;;;;;;;;;5092704;28;20024;-68
2021/08/21 02:13:30;;;;;;;31.85;15.85;;;;;;;;;;5093960;28;20051;-68
2021/08/21 02:15:56;;;;;;;34.63;16.77;;;;;;;;;;5091075;28;20028;-68
2021/08/21 02:18:22;;;;;;;35.33;16.48;;;;;;;;;;5094000;28;20040;-68
2021/08/21 02:20:48;;;;;;;39.55;17.85;;;;;;;;;;5093713;28;20020;-68
2021/08/21 02:23:14;;;;;;;40.03;18.60;;;;;;;;;;5093585;28;20027;-68
2021/08/21 02:25:40;;;;;;;41.25;18.85;;;;;;;;;;5092259;28;20020;-68
2021/08/21 02:28:08;;;;;;;34.75;16.77;;;;;;;;;;5092328;28;20085;-68
2021/08/21 02:30:37;;;;;;;33.97;16.73;;;;;;;;;;5093474;28;20107;-68
2021/08/21 02:33:04;;;;;;;32.78;16.08;;;;;;;;;;5093400;28;20024;-68
2021/08/21 02:35:31;;;;;;;33.63;16.88;;;;;;;;;;5093443;28;20035;-68
2021/08/21 02:37:57;;;;;;;34.17;16.02;;;;;;;;;;5092626;28;20489;-68
2021/08/21 02:40:23;;;;;;;32.53;15.93;;;;;;;;;;5113922;28;20032;-68
2021/08/21 02:42:50;;;;;;;31.80;15.80;;;;;;;;;;5113452;28;20053;-68
2021/08/21 02:45:16;;;;;;;31.30;16.00;;;;;;;;;;5113695;28;20055;-68
2021/08/21 02:47:43;;;;;;;30.13;14.20;;;;;;;;;;5110137;28;20039;-68
2021/08/21 02:50:09;;;;;;;32.45;16.20;;;;;;;;;;5113557;28;20027;-68
2021/08/21 02:52:35;;;;;;;30.27;15.68;;;;;;;;;;5113424;28;20054;-68
2021/08/21 02:55:01;;;;;;;29.20;15.05;;;;;;;;;;5099957;28;20028;-68
2021/08/21 02:57:27;;;;;;;29.48;14.85;;;;;;;;;;5090334;28;20042;-68
2021/08/21 02:59:53;;;;;;;31.10;15.30;;;;;;;;;;5092093;28;20115;-68
2021/08/21 03:02:19;;;;;;;30.42;15.85;;;;;;;;;;5092939;28;20027;-68
2021/08/21 03:04:45;;;;;;;27.13;15.20;;;;;;;;;;5092946;28;20024;-68
2021/08/21 03:07:11;;;;;;;29.83;14.55;;;;;;;;;;5090257;28;20047;-68
2021/08/21 03:09:37;;;;;;;32.45;15.00;;;;;;;;;;5092798;28;20024;-68
2021/08/21 03:12:03;;;;;;;25.45;13.25;;;;;;;;;;5092947;28;20081;-68
2021/08/21 03:14:30;;;;;;;29.75;14.23;;;;;;;;;;5092786;28;20024;-68
2021/08/21 03:16:56;;;;;;;27.67;13.02;;;;;;;;;;5090030;28;20020;-68
2021/08/21 03:19:22;;;;;;;29.20;14.35;;;;;;;;;;5092692;28;20397;-68
2021/08/21 03:21:48;;;;;;;25.15;12.95;;;;;;;;;;5092207;28;20504;-68
2021/08/21 03:24:14;;;;;;;27.58;13.02;;;;;;;;;;5092799;28;20028;-68
2021/08/21 03:26:40;;;;;;;29.40;13.40;;;;;;;;;;5089730;28;20465;-68
2021/08/21 03:29:06;;;;;;;24.83;14.00;;;;;;;;;;5091301;28;20482;-68
2021/08/21 03:31:32;;;;;;;25.58;14.25;;;;;;;;;;5092493;28;20031;-68
2021/08/21 03:33:58;;;;;;;28.25;15.50;;;;;;;;;;5092302;28;20020;-68
2021/08/21 03:36:24;;;;;;;28.20;14.57;;;;;;;;;;5089546;28;20371;-68
2021/08/21 03:38:50;;;;;;;28.52;15.43;;;;;;;;;;5107734;28;20032;-68
2021/08/21 03:41:16;;;;;;;26.55;14.63;;;;;;;;;;5112573;28;20020;-68
2021/08/21 03:43:42;;;;;;;27.30;13.93;;;;;;;;;;5093250;28;20036;-69
2021/08/21 03:46:08;;;;;;;28.15;13.95;;;;;;;;;;5109677;28;20521;-68
2021/08/21 03:48:34;;;;;;;24.77;13.00;;;;;;;;;;5112823;28;20137;-68
2021/08/21 03:51:00;;;;;;;29.45;14.95;;;;;;;;;;5112479;28;20504;-68
2021/08/21 03:53:26;;;;;;;25.25;13.93;;;;;;;;;;5111840;28;20031;-68
2021/08/21 03:55:52;;;;;;;32.35;14.82;;;;;;;;;;5089247;28;20028;-68
2021/08/21 03:58:18;;;;;;;30.08;15.05;;;;;;;;;;5091964;28;20024;-68
2021/08/21 04:00:44;;;;;;;28.52;14.60;;;;;;;;;;5091956;28;20032;-68
2021/08/21 04:03:11;;;;;;;32.63;15.25;;;;;;;;;;5091676;28;20024;-68
2021/08/21 04:05:37;;;;;;;25.30;13.82;;;;;;;;;;5090996;28;20024;-68
2021/08/21 04:08:03;;;;;;;31.40;16.73;;;;;;;;;;5090015;28;20019;-68
2021/08/21 04:10:29;;;;;;;35.55;17.70;;;;;;;;;;5091839;28;20024;-68
2021/08/21 04:12:55;;;;;;;30.88;16.90;;;;;;;;;;5091672;28;20032;-68
2021/08/21 04:15:21;;;;;;;31.60;16.05;;;;;;;;;;5091804;28;20498;-69
2021/08/21 04:17:47;;;;;;;31.05;15.85;;;;;;;;;;5088830;28;20490;-69
2021/08/21 04:20:13;;;;;;;30.70;15.70;;;;;;;;;;5091568;28;20051;-68
2021/08/21 04:22:39;;;;;;;28.70;14.68;;;;;;;;;;5091319;28;20081;-69
2021/08/21 04:25:06;;;;;;;29.80;15.05;;;;;;;;;;5090144;28;20081;-68
2021/08/21 04:27:32;;;;;;;29.52;15.20;;;;;;;;;;5088396;28;20020;-69
2021/08/21 04:29:58;;;;;;;32.83;14.77;;;;;;;;;;5090248;28;20032;-68
2021/08/21 04:32:24;;;;;;;29.77;15.27;;;;;;;;;;5091290;28;20012;-68
2021/08/21 04:34:51;;;;;;;30.63;15.48;;;;;;;;;;5091485;28;20020;-68
2021/08/21 04:37:18;;;;;;;32.80;15.23;;;;;;;;;;5090675;28;20059;-69
2021/08/21 04:39:44;;;;;;;26.35;14.73;;;;;;;;;;5111524;28;20519;-68
2021/08/21 04:42:10;;;;;;;25.55;13.10;;;;;;;;;;5111414;28;20028;-68
2021/08/21 04:44:36;;;;;;;27.60;13.23;;;;;;;;;;5111464;28;20111;-68
2021/08/21 04:47:02;;;;;;;28.33;13.35;;;;;;;;;;5108858;28;20058;-68
2021/08/21 04:49:28;;;;;;;28.30;13.85;;;;;;;;;;5111606;28;20020;-68
2021/08/21 04:51:56;;;;;;;27.80;12.90;;;;;;;;;;5111317;28;20019;-68
2021/08/21 04:54:22;;;;;;;28.90;14.95;;;;;;;;;;5103160;28;20500;-68
2021/08/21 04:56:48;;;;;;;29.67;14.57;;;;;;;;;;5088229;28;20498;-68
2021/08/21 04:59:14;;;;;;;24.15;12.65;;;;;;;;;;5091376;28;20077;-68
2021/08/21 05:01:40;;;;;;;33.95;15.77;;;;;;;;;;5091000;28;20115;-68
2021/08/21 05:04:06;;;;;;;27.55;14.02;;;;;;;;;;5090809;28;20051;-68
2021/08/21 05:06:33;;;;;;;29.05;14.23;;;;;;;;;;5088251;28;20024;-68
2021/08/21 05:08:59;;;;;;;31.45;15.20;;;;;;;;;;5091161;28;20099;-68
2021/08/21 05:11:25;;;;;;;32.85;14.57;;;;;;;;;;5092473;28;20085;-68
2021/08/21 05:13:51;;;;;;;29.58;13.77;;;;;;;;;;5094941;28;20024;-69
2021/08/21 05:16:17;;;;;;;34.38;15.25;;;;;;;;;;5092223;28;20031;-68
2021/08/21 05:18:50;;;;;;;30.20;13.20;;;;;;;;;;5095365;28;20474;-68
2021/08/21 05:21:26;;;;;;;27.42;13.65;;;;;;;;;;5095217;28;20547;-68
2021/08/21 05:23:52;;;;;;;22.75;12.02;;;;;;;;;;5095079;28;20043;-68
2021/08/21 05:26:18;;;;;;;29.20;12.23;;;;;;;;;;5092008;28;20128;-68
2021/08/21 05:28:44;;;;;;;25.58;12.75;;;;;;;;;;5095051;28;20416;-68
2021/08/21 05:31:10;;;;;;;28.63;12.45;;;;;;;;;;5094983;28;20019;-68
2021/08/21 05:33:36;;;;;;;35.28;14.48;;;;;;;;;;5093149;28;20417;-68
2021/08/21 05:36:02;;;;;;;29.58;14.70;;;;;;;;;;5091549;28;20044;-68
2021/08/21 05:38:28;;;;;;;34.72;14.40;;;;;;;;;;5094488;28;20110;-68
2021/08/21 05:40:54;;;;;;;39.92;15.07;;;;;;;;;;5094584;28;20024;-68
2021/08/21 05:43:20;;;;;;;38.20;15.90;;;;;;;;;;5094439;28;20028;-68
2021/08/21 05:45:46;;;;;;;38.97;16.38;;;;;;;;;;5109399;28;20019;-68
2021/08/21 05:48:12;;;;;;;49.95;18.75;;;;;;;;;;5114517;28;20085;-68
2021/08/21 05:50:39;;;;;;;38.35;16.25;;;;;;;;;;5114670;28;20092;-68
2021/08/21 05:53:05;;;;;;;55.97;21.15;;;;;;;;;;5114597;28;20477;-68
2021/08/21 05:55:31;;;;;;;62.00;25.63;;;;;;;;;;5092600;28;20066;-68
2021/08/21 05:57:57;;;;;;;57.92;24.50;;;;;;;;;;5091773;28;20040;-68
2021/08/21 06:00:24;;;;;;;57.00;23.98;;;;;;;;;;5094457;28;20031;-69
2021/08/21 06:02:50;;;;;;;60.75;25.58;;;;;;;;;;5093807;28;20069;-68
2021/08/21 06:05:17;;;;;;;61.60;25.00;;;;;;;;;;5094130;28;20024;-68
2021/08/21 06:07:43;;;;;;;62.03;25.13;;;;;;;;;;5091326;28;20028;-68
2021/08/21 06:10:09;;;;;;;58.35;26.40;;;;;;;;;;5094188;28;20382;-69
2021/08/21 06:12:36;;;;;;;55.33;25.10;;;;;;;;;;5093702;28;20478;-68
2021/08/21 06:15:02;;;;;;;63.45;28.88;;;;;;;;;;5094230;28;20035;-68
2021/08/21 06:17:28;;;;;;;62.97;27.77;;;;;;;;;;5091161;28;20024;-69
2021/08/21 06:19:56;;;;;;;64.47;28.40;;;;;;;;;;5093691;28;20035;-68
2021/08/21 06:22:22;;;;;;;63.85;27.55;;;;;;;;;;5073914;28;20031;-68
2021/08/21 06:24:49;;;;;;;61.35;26.77;;;;;;;;;;5093599;28;20102;-69
2021/08/21 06:27:15;;;;;;;66.25;28.75;;;;;;;;;;5090830;28;20035;-68
2021/08/21 06:29:41;;;;;;;65.38;29.65;;;;;;;;;;5093669;28;20024;-68
2021/08/21 06:32:07;;;;;;;63.08;28.20;;;;;;;;;;5093503;28;20047;-68
2021/08/21 06:34:33;;;;;;;69.22;28.48;;;;;;;;;;5093500;28;20035;-68
2021/08/21 06:37:05;;;;;;;56.97;27.08;;;;;;;;;;5089379;28;20048;-69
2021/08/21 06:39:31;;;;;;;61.45;29.48;;;;;;;;;;5113671;28;20096;-68
2021/08/21 06:41:57;;;;;;;58.05;28.77;;;;;;;;;;5113912;28;20082;-68
2021/08/21 06:44:23;;;;;;;63.40;29.50;;;;;;;;;;5095321;28;20513;-68
2021/08/21 06:46:49;;;;;;;69.50;32.08;;;;;;;;;;5110880;28;20016;-68
2021/08/21 06:49:15;;;;;;;74.63;32.55;;;;;;;;;;5113680;28;20092;-68
2021/08/21 06:51:41;;;;;;;58.17;29.98;;;;;;;;;;5113725;28;20023;-69
2021/08/21 06:54:07;;;;;;;68.10;32.88;;;;;;;;;;5091352;28;20486;-68
2021/08/21 06:56:33;;;;;;;63.15;30.83;;;;;;;;;;5090331;28;20024;-68
2021/08/21 06:58:59;;;;;;;72.38;34.65;;;;;;;;;;5093466;28;20032;-68
2021/08/21 07:01:27;;;;;;;74.60;34.75;;;;;;;;;;5093086;28;20024;-68
2021/08/21 07:03:53;;;;;;;66.80;34.78;;;;;;;;;;5092800;28;20031;-68
2021/08/21 07:06:19;;;;;;;69.38;39.88;;;;;;;;;;5090041;28;20016;-68
2021/08/21 07:08:45;;;;;;;73.93;37.90;;;;;;;;;;5093009;28;20389;-68
2021/08/21 07:11:11;;;;;;;72.22;40.13;;;;;;;;;;5074557;28;20028;-68
2021/08/21 07:13:38;;;;;;;75.30;40.85;;;;;;;;;;5092644;28;20024;-68
2021/08/21 07:16:04;;;;;;;72.05;39.10;;;;;;;;;;5090014;28;20316;-69
2021/08/21 07:18:30;;;;;;;69.72;39.60;;;;;;;;;;5092782;28;20084;-68
2021/08/21 07:20:56;;;;;;;71.53;40.13;;;;;;;;;;5092797;28;20084;-69
2021/08/21 07:23:22;;;;;;;66.45;37.75;;;;;;;;;;5074674;28;20036;-69
2021/08/21 07:25:48;;;;;;;68.07;37.22;;;;;;;;;;5090272;28;20012;-69
2021/08/21 07:28:14;;;;;;;71.93;38.17;;;;;;;;;;5092077;28;20012;-69
2021/08/21 07:30:40;;;;;;;67.10;37.92;;;;;;;;;;5092535;28;20383;-68
2021/08/21 07:33:06;;;;;;;59.28;35.33;;;;;;;;;;5091691;28;20119;-69
2021/08/21 07:35:32;;;;;;;61.05;33.75;;;;;;;;;;5091779;28;20039;-69
2021/08/21 07:37:58;;;;;;;62.78;36.35;;;;;;;;;;5098117;28;20031;-69
2021/08/21 07:40:24;;;;;;;57.92;34.35;;;;;;;;;;5112697;28;20027;-69
2021/08/21 07:42:50;;;;;;;61.03;36.30;;;;;;;;;;5112274;28;20027;-69
2021/08/21 07:45:17;;;;;;;58.38;32.47;;;;;;;;;;5112900;28;20077;-69
2021/08/21 07:47:43;;;;;;;65.40;34.30;;;;;;;;;;5091532;28;20106;-69
2021/08/21 07:50:09;;;;;;;52.90;31.48;;;;;;;;;;5112526;28;20016;-69
2021/08/21 07:52:35;;;;;;;54.80;33.28;;;;;;;;;;5112234;28;20485;-69
2021/08/21 07:55:01;;;;;;;51.60;31.13;;;;;;;;;;5098816;28;20051;-69
2021/08/21 07:57:27;;;;;;;47.42;31.50;;;;;;;;;;5089150;28;20032;-69
2021/08/21 07:59:53;;;;;;;49.17;29.15;;;;;;;;;;5090665;28;20024;-69
2021/08/21 08:02:19;;;;;;;47.63;30.30;;;;;;;;;;5091655;28;20043;-69
2021/08/21 08:04:45;;;;;;;45.20;28.92;;;;;;;;;;5089825;28;20025;-69
2021/08/21 08:07:11;;;;;;;40.13;26.00;;;;;;;;;;5087725;28;20059;-69
2021/08/21 08:09:37;;;;;;;44.53;26.70;;;;;;;;;;5091792;28;20460;-69
2021/08/21 08:12:03;;;;;;;39.75;25.83;;;;;;;;;;5091753;28;20070;-69
2021/08/21 08:14:30;;;;;;;39.00;22.77;;;;;;;;;;5091391;28;20027;-69
2021/08/21 08:16:56;;;;;;;34.05;19.55;;;;;;;;;;5088802;28;20032;-69
2021/08/21 08:19:22;;;;;;;33.08;20.50;;;;;;;;;;5091436;28;20401;-69
2021/08/21 08:21:48;;;;;;;35.40;20.02;;;;;;;;;;5091642;28;20028;-69
2021/08/21 08:24:16;;;;;;;36.03;20.80;;;;;;;;;;5091192;28;20447;-69
2021/08/21 08:26:42;;;;;;;31.92;20.02;;;;;;;;;;5088817;28;20111;-69
2021/08/21 08:29:08;;;;;;;30.48;20.05;;;;;;;;;;5090265;28;20035;-69
2021/08/21 08:31:34;;;;;;;33.42;19.55;;;;;;;;;;5091609;28;20020;-69
2021/08/21 08:34:00;;;;;;;30.30;18.10;;;;;;;;;;5091484;28;20023;-70
2021/08/21 08:36:26;;;;;;;29.08;17.70;;;;;;;;;;5087011;28;20044;-69
2021/08/21 08:38:52;;;;;;;23.77;14.75;;;;;;;;;;5107136;28;20061;-69
2021/08/21 08:41:21;;;;;;;25.88;16.50;;;;;;;;;;5093214;28;20019;-69
2021/08/21 08:43:47;;;;;;;27.77;15.93;;;;;;;;;;5111163;28;20031;-68
2021/08/21 08:46:13;;;;;;;23.10;14.27;;;;;;;;;;5108090;28;20028;-69
2021/08/21 08:48:39;;;;;;;22.10;14.98;;;;;;;;;;5111382;28;20012;-68
2021/08/21 08:51:07;;;;;;;22.92;14.82;;;;;;;;;;5111705;28;20076;-69
2021/08/21 08:53:34;;;;;;;22.38;14.07;;;;;;;;;;5110088;28;20016;-69
2021/08/21 08:56:00;;;;;;;24.88;13.63;;;;;;;;;;5087706;28;20020;-68
2021/08/21 08:58:26;;;;;;;21.10;12.98;;;;;;;;;;5091533;28;20040;-69
2021/08/21 09:00:52;;;;;;;18.70;12.50;;;;;;;;;;5089733;28;20023;-69
2021/08/21 09:03:23;;;;;;;17.23;11.00;;;;;;;;;;5089494;28;20059;-68
2021/08/21 09:05:49;;;;;;;15.63;9.52;;;;;;;;;;5088692;28;20012;-69
2021/08/21 09:08:23;;;;;;;16.10;9.80;;;;;;;;;;5090705;28;20063;-70
2021/08/21 09:10:51;;;;;;;15.57;8.43;;;;;;;;;;5089632;28;20032;-69
2021/08/21 09:13:18;;;;;;;18.20;8.60;;;;;;;;;;5090728;28;20024;-68
2021/08/21 09:15:45;;;;;;;16.92;10.55;;;;;;;;;;5089217;28;20032;-68
2021/08/21 09:18:15;;;;;;;15.38;8.57;;;;;;;;;;5090121;28;20115;-68
2021/08/21 09:20:50;;;;;;;15.50;9.98;;;;;;;;;;5090705;28;20549;-68
2021/08/21 09:23:16;;;;;;;16.08;10.15;;;;;;;;;;5090551;28;20103;-69
2021/08/21 09:25:43;;;;;;;20.30;9.95;;;;;;;;;;5089325;28;20016;-69
2021/08/21 09:28:16;;;;;;;15.85;8.90;;;;;;;;;;5089831;28;20028;-69
2021/08/21 09:30:42;;;;;;;15.82;9.95;;;;;;;;;;5072620;28;20025;-69
2021/08/21 09:33:08;;;;;;;16.67;9.20;;;;;;;;;;5090435;28;20035;-69
2021/08/21 09:35:34;;;;;;;12.70;8.20;;;;;;;;;;5090188;28;20035;-69
2021/08/21 09:38:00;;;;;;;17.10;9.30;;;;;;;;;;5096791;28;20038;-68
2021/08/21 09:40:26;;;;;;;15.77;8.55;;;;;;;;;;5111004;28;20055;-68
2021/08/21 09:42:52;;;;;;;14.13;8.82;;;;;;;;;;5109417;28;20020;-68
2021/08/21 09:45:20;;;;;;;13.93;7.93;;;;;;;;;;5110995;28;20035;-68
2021/08/21 09:47:47;;;;;;;17.05;9.40;;;;;;;;;;5108032;28;20102;-68
2021/08/21 09:50:15;;;;;;;18.50;9.80;;;;;;;;;;5092421;28;20069;-68
2021/08/21 09:52:41;;;;;;;18.05;11.07;;;;;;;;;;5110928;28;20057;-68
2021/08/21 09:55:09;;;;;;;13.10;8.65;;;;;;;;;;5096201;28;20028;-68
2021/08/21 09:57:36;;;;;;;16.55;9.95;;;;;;;;;;5090411;28;20028;-69
2021/08/21 10:00:04;;;;;;;14.80;9.32;;;;;;;;;;5094543;28;20016;-69
2021/08/21 10:02:31;;;;;;;16.88;10.57;;;;;;;;;;5093857;28;20138;-68
2021/08/21 10:04:58;;;;;;;17.52;10.82;;;;;;;;;;5092842;28;20085;-68
2021/08/21 10:07:40;;;;;;;17.80;10.60;;;;;;;;;;5089965;28;20066;-69
2021/08/21 10:10:07;;;;;;;16.70;11.10;;;;;;;;;;5094111;28;20107;-68
2021/08/21 10:12:36;;;;;;;18.95;11.00;;;;;;;;;;5093770;28;20028;-68
2021/08/21 10:15:02;;;;;;;18.88;11.30;;;;;;;;;;5094073;28;20031;-68
2021/08/21 10:17:30;;;;;;;18.38;12.43;;;;;;;;;;5091229;28;20024;-68
2021/08/21 10:19:57;;;;;;;16.13;11.50;;;;;;;;;;5094076;28;20509;-69
2021/08/21 10:22:26;;;;;;;17.30;10.35;;;;;;;;;;5093870;28;20052;-69
2021/08/21 10:24:53;;;;;;;18.02;10.50;;;;;;;;;;5093686;28;20031;-68
2021/08/21 10:27:27;;;;;;;16.08;10.13;;;;;;;;;;5090856;28;20034;-68
2021/08/21 10:30:06;;;;;;;17.70;10.80;;;;;;;;;;5093785;28;20035;-69
2021/08/21 10:32:33;;;;;;;15.73;9.45;;;;;;;;;;5092085;28;20024;-70
2021/08/21 10:35:00;;;;;;;16.10;9.10;;;;;;;;;;5093623;28;20069;-69
2021/08/21 10:37:33;;;;;;;14.80;8.10;;;;;;;;;;5094175;28;20047;-69
2021/08/21 10:39:59;;;;;;;17.23;8.65;;;;;;;;;;5113858;28;20022;-69
2021/08/21 10:42:30;;;;;;;15.38;9.40;;;;;;;;;;5113936;28;20019;-68
2021/08/21 10:44:57;;;;;;;16.08;8.32;;;;;;;;;;5095555;28;20031;-69
2021/08/21 10:47:33;;;;;;;14.30;8.57;;;;;;;;;;5111174;28;20065;-69
2021/08/21 10:50:00;;;;;;;14.73;8.80;;;;;;;;;;5113909;28;20031;-69
2021/08/21 10:52:38;;;;;;;16.70;8.95;;;;;;;;;;5113710;28;20480;-69
2021/08/21 10:55:37;;;;;;;13.13;7.47;;;;;;;;;;5099611;28;20051;-69
2021/08/21 10:58:03;;;;;;;12.38;6.45;;;;;;;;;;5046653;28;20070;-69
2021/08/21 11:00:42;;;;;;;14.88;7.50;;;;;;;;;;5093250;28;20024;-70
2021/08/21 11:03:18;;;;;;;14.57;7.13;;;;;;;;;;5092934;28;20035;-69
2021/08/21 11:06:04;;;;;;;11.35;6.57;;;;;;;;;;5091187;28;20078;-69
2021/08/21 11:08:36;;;;;;;15.57;7.25;;;;;;;;;;5092216;28;20024;-69
2021/08/21 11:11:19;;;;;;;12.82;7.78;;;;;;;;;;5092859;28;20447;-70
2021/08/21 11:13:47;;;;;;;15.55;7.60;;;;;;;;;;5092715;28;20085;-69
2021/08/21 11:16:13;;;;;;;16.10;7.38;;;;;;;;;;5089918;28;20320;-69
2021/08/21 11:18:45;;;;;;;13.52;7.63;;;;;;;;;;5092825;28;20027;-69
2021/08/21 11:21:30;;;;;;;13.32;7.18;;;;;;;;;;5092750;28;20032;-69
2021/08/21 11:23:57;;;;;;;9.75;5.82;;;;;;;;;;5092537;28;20036;-69
2021/08/21 11:26:23;;;;;;;13.02;5.70;;;;;;;;;;5087529;28;20032;-69
2021/08/21 11:29:06;;;;;;;8.38;5.07;;;;;;;;;;5092689;28;20032;-69
2021/08/21 11:31:53;;;;;;;9.60;4.30;;;;;;;;;;5092427;28;20030;-69
2021/08/21 11:34:20;;;;;;;8.65;5.00;;;;;;;;;;5092162;28;20051;-69
2021/08/21 11:36:49;;;;;;;8.10;4.35;;;;;;;;;;5089421;28;20056;-69
2021/08/21 11:39:15;;;;;;;11.38;4.43;;;;;;;;;;5111286;28;20049;-69
2021/08/21 11:41:52;;;;;;;10.90;4.43;;;;;;;;;;5112714;28;20062;-69
2021/08/21 11:44:26;;;;;;;8.90;3.95;;;;;;;;;;5112683;28;20047;-69
2021/08/21 11:47:03;;;;;;;8.40;4.18;;;;;;;;;;5091738;28;20107;-69
2021/08/21 11:49:29;;;;;;;9.05;3.80;;;;;;;;;;5094500;28;20028;-69
2021/08/21 11:51:59;;;;;;;9.68;4.68;;;;;;;;;;5112695;28;20020;-69
2021/08/21 11:54:27;;;;;;;10.18;4.60;;;;;;;;;;5103787;28;20146;-69
2021/08/21 11:56:59;;;;;;;8.45;4.03;;;;;;;;;;5089083;28;20525;-69
2021/08/21 11:59:25;;;;;;;7.88;3.47;;;;;;;;;;5092002;28;20469;-69
2021/08/21 12:02:04;;;;;;;8.38;4.10;;;;;;;;;;5090436;28;20024;-69
2021/08/21 12:04:32;;;;;;;8.48;4.32;;;;;;;;;;5091277;28;20548;-69
2021/08/21 12:06:59;;;;;;;8.63;4.07;;;;;;;;;;5088977;28;20016;-69
2021/08/21 12:09:25;;;;;;;7.22;3.47;;;;;;;;;;5091678;28;20017;-69
2021/08/21 12:11:52;;;;;;;9.20;4.57;;;;;;;;;;5091704;28;20024;-70
2021/08/21 12:14:19;;;;;;;10.77;4.40;;;;;;;;;;5091737;28;20210;-69
2021/08/21 12:16:45;;;;;;;9.50;4.30;;;;;;;;;;5089021;28;20020;-69
2021/08/21 12:19:11;;;;;;;8.02;4.68;;;;;;;;;;5091665;28;20016;-69
2021/08/21 12:21:38;;;;;;;9.13;4.55;;;;;;;;;;5091516;28;20024;-69
2021/08/21 12:24:12;;;;;;;9.70;5.45;;;;;;;;;;5091315;28;20028;-69
2021/08/21 12:26:45;;;;;;;6.70;4.00;;;;;;;;;;5088479;28;20012;-70
2021/08/21 12:29:28;;;;;;;8.20;4.15;;;;;;;;;;5091519;28;20024;-69
2021/08/21 12:31:54;;;;;;;7.95;4.22;;;;;;;;;;5091457;28;20387;-69
2021/08/21 12:34:21;;;;;;;8.75;4.63;;;;;;;;;;5073023;28;20021;-70
2021/08/21 12:36:48;;;;;;;8.70;4.85;;;;;;;;;;5070044;28;20048;-70
2021/08/21 12:39:19;;;;;;;10.18;5.68;;;;;;;;;;5110028;28;20024;-69
2021/08/21 12:41:48;;;;;;;11.32;4.93;;;;;;;;;;5093275;28;20020;-70
2021/08/21 12:44:15;;;;;;;7.63;4.47;;;;;;;;;;5111373;28;20165;-69
2021/08/21 12:46:54;;;;;;;11.63;5.38;;;;;;;;;;5108931;28;20073;-69
2021/08/21 12:49:32;;;;;;;7.85;3.95;;;;;;;;;;5093503;28;20020;-70
2021/08/21 12:52:00;;;;;;;5.47;2.92;;;;;;;;;;5111649;28;20023;-70
2021/08/21 12:54:33;;;;;;;5.00;2.60;;;;;;;;;;5102523;28;20282;-70
2021/08/21 12:57:06;;;;;;;5.43;2.50;;;;;;;;;;5088449;28;20027;-69
2021/08/21 12:59:32;;;;;;;5.20;1.90;;;;;;;;;;5091148;28;20065;-69
2021/08/21 13:02:08;;;;;;;7.32;2.78;;;;;;;;;;5091075;28;20024;-70
2021/08/21 13:04:34;;;;;;;4.82;2.08;;;;;;;;;;5090619;28;20025;-70
2021/08/21 13:07:11;;;;;;;6.13;2.00;;;;;;;;;;5088281;28;20394;-71
2021/08/21 13:09:40;;;;;;;4.50;1.88;;;;;;;;;;5090957;28;20020;-70
2021/08/21 13:12:07;;;;;;;7.07;3.08;;;;;;;;;;5089044;28;20040;-70
2021/08/21 13:14:34;;;;;;;4.82;2.80;;;;;;;;;;5090621;28;20031;-72
2021/08/21 13:17:00;;;;;;;5.97;2.60;;;;;;;;;;5088163;28;20051;-70
2021/08/21 13:19:26;;;;;;;6.70;3.55;;;;;;;;;;5089847;28;20074;-70
2021/08/21 13:21:52;;;;;;;8.82;4.30;;;;;;;;;;5090805;28;20031;-69
2021/08/21 13:24:18;;;;;;;7.00;4.40;;;;;;;;;;5090543;28;20031;-70
2021/08/21 13:26:44;;;;;;;5.95;3.13;;;;;;;;;;5087860;28;20020;-70
2021/08/21 13:29:10;;;;;;;8.20;3.83;;;;;;;;;;5090845;28;20020;-70
2021/08/21 13:31:36;;;;;;;8.18;3.80;;;;;;;;;;5092041;28;20028;-69
2021/08/21 13:34:08;;;;;;;6.45;3.63;;;;;;;;;;5094707;28;20111;-70
2021/08/21 13:36:34;;;;;;;;;;;;;;;;;;5092321;28;20063;-69
2021/08/21 13:39:00;;;;;;;10.93;5.03;;;;;;;;;;5111745;28;19907;-71
2021/08/21 13:41:26;;;;;;;9.88;4.78;;;;;;;;;;5114995;28;20524;-70
2021/08/21 13:43:52;;;;;;;6.82;4.25;;;;;;;;;;5115000;28;20096;-69
2021/08/21 13:46:18;;;;;;;5.78;3.58;;;;;;;;;;5112217;28;20027;-69
2021/08/21 13:48:44;;;;;;;8.57;4.20;;;;;;;;;;5115004;28;20020;-70
2021/08/21 13:51:10;;;;;;;5.80;3.15;;;;;;;;;;5114763;28;20028;-69
2021/08/21 13:53:36;;;;;;;6.45;3.95;;;;;;;;;;5112688;28;20093;-69
2021/08/21 13:56:03;;;;;;;7.18;4.30;;;;;;;;;;5091225;28;20019;-69
2021/08/21 13:58:30;;;;;;;7.25;4.30;;;;;;;;;;5094348;28;20020;-69
2021/08/21 14:00:56;;;;;;;6.22;3.75;;;;;;;;;;5094392;28;20035;-69
2021/08/21 14:03:22;;;;;;;7.55;4.10;;;;;;;;;;5094170;28;20070;-69
2021/08/21 14:05:49;;;;;;;8.30;4.28;;;;;;;;;;5091965;28;20027;-69
2021/08/21 14:08:15;;;;;;;7.07;4.03;;;;;;;;;;5092658;28;20472;-69
2021/08/21 14:10:41;;;;;;;9.68;4.28;;;;;;;;;;5094155;28;20086;-70
2021/08/21 14:13:07;;;;;;;8.40;4.03;;;;;;;;;;5093820;28;20024;-69
2021/08/21 14:15:33;;;;;;;5.88;3.70;;;;;;;;;;5093572;28;20020;-69
2021/08/21 14:17:59;;;;;;;6.03;3.90;;;;;;;;;;5091920;28;20028;-70
2021/08/21 14:20:25;;;;;;;5.85;3.80;;;;;;;;;;5093823;28;20032;-69
2021/08/21 14:22:51;;;;;;;6.55;3.38;;;;;;;;;;5093703;28;20063;-69
2021/08/21 14:25:17;;;;;;;6.90;4.57;;;;;;;;;;5093771;28;20020;-70